createdAt,value
2018-12-09T00:04:46.546Z,15.77
2018-12-09T00:10:05.123Z,21.02
2018-12-09T00:15:22.607Z,17.17
2018-12-09T00:20:40.149Z,16.80
2018-12-09T00:25:57.681Z,21.53
2018-12-09T00:31:15.149Z,15.63
2018-12-09T00:36:32.635Z,21.63
2018-12-09T00:41:50.112Z,19.20
2018-12-09T00:47:07.686Z,18.27
2018-12-09T00:52:25.285Z,20.80
2018-12-09T00:57:42.813Z,31.30
2018-12-09T01:03:00.273Z,32.50
2018-12-09T01:08:17.799Z,17.73
2018-12-09T01:13:36.097Z,28.23
2018-12-09T01:18:53.592Z,14.67
2018-12-09T01:24:11.069Z,7.85
2018-12-09T01:29:28.543Z,10.50
2018-12-09T01:34:46.044Z,14.13
2018-12-09T01:40:04.996Z,14.53
2018-12-09T01:45:22.475Z,10.47
2018-12-09T01:50:39.948Z,24.33
2018-12-09T01:55:57.412Z,22.23
2018-12-09T02:01:14.917Z,10.23
2018-12-09T02:06:32.493Z,17.00
2018-12-09T02:11:50.188Z,27.27
2018-12-09T02:17:08.067Z,31.70
2018-12-09T02:22:25.553Z,17.47
2018-12-09T02:27:43.018Z,23.63
2018-12-09T02:33:00.494Z,22.37
2018-12-09T02:38:18.312Z,25.83
2018-12-09T02:43:35.890Z,21.83
2018-12-09T02:48:53.365Z,20.53
2018-12-09T02:54:10.927Z,22.70
2018-12-09T02:59:28.784Z,15.20
2018-12-09T03:04:46.351Z,16.93
2018-12-09T03:10:04.907Z,13.10
2018-12-09T03:15:22.474Z,20.53
2018-12-09T03:20:40.163Z,17.63
2018-12-09T03:25:57.689Z,14.87
2018-12-09T03:31:15.248Z,17.10
2018-12-09T03:36:32.739Z,23.70
2018-12-09T03:41:50.701Z,16.17
2018-12-09T03:47:08.177Z,13.40
2018-12-09T03:52:25.746Z,21.90
2018-12-09T03:57:43.216Z,20.73
2018-12-09T04:03:00.701Z,12.63
2018-12-09T04:08:18.169Z,15.83
2018-12-09T04:13:36.475Z,13.73
2018-12-09T04:18:53.945Z,16.50
2018-12-09T04:24:11.424Z,13.77
2018-12-09T04:29:28.960Z,18.00
2018-12-09T04:34:46.448Z,14.97
2018-12-09T04:40:05.221Z,8.33
2018-12-09T04:45:22.724Z,12.30
2018-12-09T04:50:40.200Z,9.30
2018-12-09T04:55:57.668Z,8.00
2018-12-09T05:01:17.198Z,5.37
2018-12-09T05:06:34.805Z,5.53
2018-12-09T05:11:52.325Z,6.43
2018-12-09T05:17:09.917Z,6.42
2018-12-09T05:22:27.807Z,3.20
2018-12-09T05:27:45.287Z,10.03
2018-12-09T05:33:02.808Z,8.53
2018-12-09T05:38:20.278Z,6.03
2018-12-09T05:43:37.738Z,6.60
2018-12-09T05:48:55.233Z,16.43
2018-12-09T05:54:12.713Z,9.03
2018-12-09T05:59:30.502Z,14.60
2018-12-09T06:04:48.029Z,10.63
2018-12-09T06:10:05.687Z,12.77
2018-12-09T06:15:23.217Z,9.23
2018-12-09T06:20:40.721Z,10.40
2018-12-09T06:25:59.090Z,6.90
2018-12-09T06:31:17.390Z,13.70
2018-12-09T06:36:34.866Z,19.33
2018-12-09T06:41:52.361Z,8.13
2018-12-09T06:47:09.825Z,9.83
2018-12-09T06:52:27.305Z,11.97
2018-12-09T06:57:46.066Z,14.07
2018-12-09T07:03:03.560Z,23.33
2018-12-09T07:08:21.033Z,14.97
2018-12-09T07:13:38.496Z,17.13
2018-12-09T07:18:55.970Z,27.50
2018-12-09T07:24:13.432Z,18.67
2018-12-09T07:29:30.892Z,23.60
2018-12-09T07:34:48.395Z,23.67
2018-12-09T07:40:08.844Z,17.67
2018-12-09T07:45:26.313Z,19.57
2018-12-09T07:50:43.787Z,18.30
2018-12-09T07:56:01.353Z,13.63
2018-12-09T08:01:18.818Z,18.32
2018-12-09T08:06:36.815Z,21.87
2018-12-09T08:11:54.278Z,19.73
2018-12-09T08:17:11.743Z,17.03
2018-12-09T08:22:29.200Z,16.23
2018-12-09T08:27:46.668Z,18.87
2018-12-09T08:33:04.322Z,16.00
2018-12-09T08:38:21.901Z,19.90
2018-12-09T08:43:39.364Z,14.70
2018-12-09T08:48:56.825Z,20.80
2018-12-09T08:54:14.517Z,15.87
2018-12-09T08:59:32.085Z,19.40
2018-12-09T09:04:49.549Z,15.40
2018-12-09T09:10:07.094Z,17.98
2018-12-09T09:15:24.588Z,17.47
2018-12-09T09:20:42.060Z,14.70
2018-12-09T09:25:59.524Z,9.37
2018-12-09T09:31:17.009Z,17.97
2018-12-09T09:36:34.582Z,15.93
2018-12-09T09:41:52.048Z,13.60
2018-12-09T09:47:10.705Z,11.63
2018-12-09T09:52:28.337Z,17.97
2018-12-09T09:57:45.784Z,20.73
2018-12-09T10:03:03.255Z,14.03
2018-12-09T10:08:20.727Z,17.63
2018-12-09T10:13:38.314Z,15.97
2018-12-09T10:18:55.793Z,12.77
2018-12-09T10:24:13.254Z,11.33
2018-12-09T10:29:30.712Z,12.67
2018-12-09T10:34:48.201Z,14.53
2018-12-09T10:40:06.159Z,14.47
2018-12-09T10:45:23.648Z,20.50
2018-12-09T10:50:41.106Z,13.23
2018-12-09T10:55:58.585Z,18.80
2018-12-09T11:01:21.704Z,5.63
2018-12-09T11:06:39.244Z,1.83
2018-12-09T11:11:56.718Z,2.20
2018-12-09T11:17:14.209Z,1.87
2018-12-09T11:22:31.760Z,9.07
2018-12-09T11:27:49.267Z,3.30
2018-12-09T11:33:06.729Z,1.13
2018-12-09T11:38:24.192Z,1.37
2018-12-09T11:43:41.653Z,2.53
2018-12-09T11:48:59.114Z,4.10
2018-12-09T11:54:16.607Z,3.53
2018-12-09T11:59:34.065Z,4.00
2018-12-09T12:04:51.531Z,1.80
2018-12-09T12:10:09.087Z,2.15
2018-12-09T12:15:26.562Z,3.63
2018-12-09T12:20:44.008Z,2.83
2018-12-09T12:26:02.918Z,4.43
2018-12-09T12:31:20.378Z,4.17
2018-12-09T12:36:37.839Z,4.85
2018-12-09T12:41:55.314Z,4.10
2018-12-09T12:47:12.793Z,3.63
2018-12-09T12:52:30.280Z,3.70
2018-12-09T12:57:47.735Z,5.00
2018-12-09T13:03:05.192Z,4.90
2018-12-09T13:08:22.671Z,9.20
2018-12-09T13:13:40.144Z,2.27
2018-12-09T13:18:57.599Z,10.03
2018-12-09T13:24:15.073Z,8.40
2018-12-09T13:29:32.533Z,11.07
2018-12-09T13:34:50.104Z,8.50
2018-12-09T13:40:07.564Z,7.40
2018-12-09T13:45:25.029Z,8.73
2018-12-09T13:50:42.572Z,8.27
2018-12-09T13:56:00.037Z,7.80
2018-12-09T14:01:17.507Z,6.13
2018-12-09T14:06:35.493Z,9.67
2018-12-09T14:11:53.197Z,10.53
2018-12-09T14:17:10.997Z,8.90
2018-12-09T14:22:28.449Z,14.87
2018-12-09T14:27:46.008Z,12.25
2018-12-09T14:33:03.585Z,17.20
2018-12-09T14:38:21.064Z,15.00
2018-12-09T14:43:38.549Z,10.40
2018-12-09T14:48:56.012Z,10.50
2018-12-09T14:54:13.488Z,17.73
2018-12-09T14:59:30.969Z,18.73
2018-12-09T15:04:48.433Z,21.23
2018-12-09T15:10:08.993Z,10.67
2018-12-09T15:15:25.864Z,16.10
2018-12-09T15:20:43.322Z,13.63
2018-12-09T15:26:01.058Z,14.45
2018-12-09T15:31:18.547Z,12.73
2018-12-09T15:36:36.026Z,9.27
2018-12-09T15:41:53.503Z,8.30
2018-12-09T15:47:11.014Z,14.07
2018-12-09T15:52:28.619Z,6.80
2018-12-09T15:57:46.087Z,13.40
2018-12-09T16:03:03.558Z,6.80
2018-12-09T16:08:21.066Z,8.70
2018-12-09T16:13:38.535Z,20.47
2018-12-09T16:18:56.051Z,9.73
2018-12-09T16:24:13.515Z,7.37
2018-12-09T16:29:31.071Z,9.80
2018-12-09T16:34:48.661Z,7.97
2018-12-09T16:40:06.326Z,11.63
2018-12-09T16:45:23.894Z,8.73
2018-12-09T16:50:41.442Z,9.93
2018-12-09T16:55:59.066Z,12.23
2018-12-09T17:01:16.555Z,11.50
2018-12-09T17:06:34.029Z,12.67
2018-12-09T17:11:51.513Z,12.23
2018-12-09T17:17:09.037Z,22.33
2018-12-09T17:22:26.531Z,18.33
2018-12-09T17:27:44.043Z,23.80
2018-12-09T17:33:01.510Z,16.03
2018-12-09T17:38:18.973Z,18.13
2018-12-09T17:43:36.451Z,13.67
2018-12-09T17:48:54.154Z,16.95
2018-12-09T17:54:11.640Z,13.53
2018-12-09T17:59:30.624Z,20.30
2018-12-09T18:04:48.139Z,10.90
2018-12-09T18:10:06.167Z,12.40
2018-12-09T18:15:24.477Z,11.97
2018-12-09T18:20:42.010Z,10.33
2018-12-09T18:25:59.679Z,18.53
2018-12-09T18:31:17.308Z,16.43
2018-12-09T18:36:34.944Z,22.20
2018-12-09T18:41:52.486Z,15.33
2018-12-09T18:47:11.911Z,13.73
2018-12-09T18:52:29.443Z,20.60
2018-12-09T18:57:46.956Z,25.60
2018-12-09T19:03:04.433Z,16.70
2018-12-09T19:08:21.917Z,11.30
2018-12-09T19:13:39.383Z,15.27
2018-12-09T19:18:57.004Z,18.50
2018-12-09T19:24:14.478Z,16.83
2018-12-09T19:29:31.957Z,12.33
2018-12-09T19:34:49.959Z,17.97
2018-12-09T19:40:07.530Z,12.53
2018-12-09T19:45:25.001Z,15.60
2018-12-09T19:50:42.535Z,26.53
2018-12-09T19:56:00.001Z,14.63
2018-12-09T20:01:17.479Z,17.60
2018-12-09T20:06:35.002Z,20.23
2018-12-09T20:11:52.467Z,20.90
2018-12-09T20:17:09.936Z,16.35
2018-12-09T20:22:27.427Z,13.20
2018-12-09T20:27:44.885Z,11.97
2018-12-09T20:33:02.429Z,18.40
2018-12-09T20:38:19.908Z,17.37
2018-12-09T20:43:37.613Z,24.50
2018-12-09T20:48:55.089Z,16.75
2018-12-09T20:54:12.557Z,23.18
2018-12-09T20:59:30.071Z,12.60
2018-12-09T21:04:47.533Z,21.83
2018-12-09T21:10:07.693Z,27.77
2018-12-09T21:15:25.157Z,20.27
2018-12-09T21:20:42.660Z,20.80
2018-12-09T21:26:00.137Z,19.13
2018-12-09T21:31:17.706Z,26.00
2018-12-09T21:36:35.167Z,20.30
2018-12-09T21:41:52.927Z,15.97
2018-12-09T21:47:10.427Z,13.67
2018-12-09T21:52:27.877Z,18.27
2018-12-09T21:57:45.350Z,16.50
2018-12-09T22:03:02.834Z,12.10
2018-12-09T22:08:20.301Z,17.83
2018-12-09T22:13:37.953Z,17.10
2018-12-09T22:18:55.704Z,16.83
2018-12-09T22:24:13.208Z,17.60
2018-12-09T22:29:30.677Z,14.03
2018-12-09T22:34:49.039Z,19.77
2018-12-09T22:40:07.549Z,21.13
2018-12-09T22:45:25.343Z,26.77
2018-12-09T22:50:42.821Z,19.33
2018-12-09T22:56:00.276Z,15.40
2018-12-09T23:01:19.295Z,23.57
2018-12-09T23:06:36.793Z,15.87
2018-12-09T23:11:54.523Z,13.80
2018-12-09T23:17:12.115Z,24.63
2018-12-09T23:22:29.582Z,23.20
2018-12-09T23:27:47.050Z,21.83
2018-12-09T23:33:04.562Z,21.43
2018-12-09T23:38:22.021Z,20.20
2018-12-09T23:43:39.487Z,22.30
2018-12-09T23:48:56.969Z,26.70
2018-12-09T23:54:14.421Z,16.93
2018-12-09T23:59:31.889Z,22.22
